Terminal Aerodrome Forecast
Issued by NWS

Home | Current Version | Previous Version | Text Only | Print | Product List | Glossary On
Versions: 1 2 3 4 5 6 7 8 9 10 11 12 13
000
FTUS46 KSGX 230520
TAFSNA
TAF
KSNA 230520Z 2306/2406 VRB04KT P6SM VCSH BKN025
     FM231600 20006KT P6SM BKN030
     FM231900 22009KT P6SM SCT030
     FM240200 VRB04KT P6SM SCT025=

USA.gov is the U.S. government's official web portal to all federal, state and local government web resources and services.